Terminal Aerodrome Forecast
Issued by NWS Burlington, VT

Home | Current Version | Previous Version | Text Only | Print | Product List | Glossary On
Versions: 1 2 3 4 5 6 7 8 9 10 11 12 13 14 15 16 17 18
000
FTUS41 KBTV 200500
TAFBTV
TAF
KBTV 200535Z 2006/2106 10004KT P6SM SKC
     FM200800 11003KT P6SM BCFG FEW001
      TEMPO 2008/2011 4SM BR SCT001
     FM201200 19005KT P6SM SCT200
     FM201800 22007KT P6SM SCT060 BKN150=

USA.gov is the U.S. government's official web portal to all federal, state and local government web resources and services.